Portada
METAR-TAF:

METAR-TAF

Aeroports :

Hagåtña, Guam, Estats Units d'Amèrica

latitud: 13-29N, longitud: 144-48E, altitud: 91 m

Observació

L'informe es va fer fa 59 minuts, a les 05:54 UTC
Vent 7 kt del Est
Temperatura 27°C
Humitat 94%
Pressió 1008 hPa
Visibilitat: 16.1 km
Escasses núvols a una alçada de 12000 ft

METAR: PGUM 240554Z 09007KT 10SM FEW120 27/26 A2976 RMK AO2 RAE01 SLP071 P0000 60030 T02720256 10306 20256 55013

Hora: 16:53 (06:53 UTC)

Pronòstic

L'informe es va fer fa 1 hora i 20 minuts, a les 05:33 UTC
Pronòstic vàlid del 24 a les 06 UTC al 25 a les 12 UTC
Vent 7 kt del Est/Sud-Est
Visibilitat: 10 km
Núvols disperses a una alçada de 1400 ft
Núvols disperses a una alçada de 5000 ft
Cel ennuvolat a una alçada de 10000 ft
xàfecs en les proximitats

TAF: PGUM 240533Z 2406/2512 11007KT P6SM VCSH SCT014 SCT050 BKN100

Observacions i pronòstics meteorològics de més de 4000 aeroports (METAR i TAF).

Les estacions disponibles són els punts grocs i vermells al mapa.

Posi el ratolí al punt desitjat per veure el nom de l'estació.

Feu clic per veure les observacions i els pronòstics meteorològics.

Per canviar el mapa: feu clic els botons verds amb una creu de color negre per apropar; al botó verd amb un guió per allunyar la imatge; o en les fletxes verdes per a mapes adjacents.


METAR-TAF: